sensor_id;sensor_type;location;lat;lon;timestamp;temperature;humidity
21244;DHT22;10780;50.942;4.028;2023-04-15T00:00:24;11.90;99.90
21244;DHT22;10780;50.942;4.028;2023-04-15T00:02:50;11.90;99.90
21244;DHT22;10780;50.942;4.028;2023-04-15T00:05:15;12.00;99.90
21244;DHT22;10780;50.942;4.028;2023-04-15T00:07:41;11.90;99.90
21244;DHT22;10780;50.942;4.028;2023-04-15T00:10:07;12.00;99.90
21244;DHT22;10780;50.942;4.028;2023-04-15T00:12:33;11.90;99.90
21244;DHT22;10780;50.942;4.028;2023-04-15T00:14:59;12.00;99.90
21244;DHT22;10780;50.942;4.028;2023-04-15T00:17:24;12.00;99.90
21244;DHT22;10780;50.942;4.028;2023-04-15T00:19:51;12.00;99.90
21244;DHT22;10780;50.942;4.028;2023-04-15T00:22:16;11.90;99.90
21244;DHT22;10780;50.942;4.028;2023-04-15T00:24:42;11.90;99.90
21244;DHT22;10780;50.942;4.028;2023-04-15T00:27:08;12.00;99.90
21244;DHT22;10780;50.942;4.028;2023-04-15T00:29:33;12.10;99.90
21244;DHT22;10780;50.942;4.028;2023-04-15T00:32:00;12.10;99.90
21244;DHT22;10780;50.942;4.028;2023-04-15T00:34:26;11.80;99.90
21244;DHT22;10780;50.942;4.028;2023-04-15T00:36:52;11.80;99.90
21244;DHT22;10780;50.942;4.028;2023-04-15T00:39:18;11.70;99.90
21244;DHT22;10780;50.942;4.028;2023-04-15T00:41:44;11.70;99.90
21244;DHT22;10780;50.942;4.028;2023-04-15T00:44:10;11.60;99.90
21244;DHT22;10780;50.942;4.028;2023-04-15T00:46:36;11.40;99.90
21244;DHT22;10780;50.942;4.028;2023-04-15T00:49:05;11.10;99.90
21244;DHT22;10780;50.942;4.028;2023-04-15T00:51:32;11.20;99.90
21244;DHT22;10780;50.942;4.028;2023-04-15T00:54:01;11.20;99.90
21244;DHT22;10780;50.942;4.028;2023-04-15T00:56:28;11.30;99.90
21244;DHT22;10780;50.942;4.028;2023-04-15T00:58:53;11.60;99.90
21244;DHT22;10780;50.942;4.028;2023-04-15T01:01:23;11.60;99.90
21244;DHT22;10780;50.942;4.028;2023-04-15T01:03:50;11.80;99.90
21244;DHT22;10780;50.942;4.028;2023-04-15T01:06:16;11.70;99.90
21244;DHT22;10780;50.942;4.028;2023-04-15T01:08:42;11.60;99.90
21244;DHT22;10780;50.942;4.028;2023-04-15T01:11:09;11.30;99.90
21244;DHT22;10780;50.942;4.028;2023-04-15T01:13:37;11.20;99.90
21244;DHT22;10780;50.942;4.028;2023-04-15T01:16:02;11.10;99.90
21244;DHT22;10780;50.942;4.028;2023-04-15T01:18:29;11.00;99.90
21244;DHT22;10780;50.942;4.028;2023-04-15T01:20:55;11.10;99.90
21244;DHT22;10780;50.942;4.028;2023-04-15T01:23:22;10.90;99.90
21244;DHT22;10780;50.942;4.028;2023-04-15T01:25:49;10.80;99.90
21244;DHT22;10780;50.942;4.028;2023-04-15T01:28:15;10.90;99.90
21244;DHT22;10780;50.942;4.028;2023-04-15T01:30:41;11.00;99.90
21244;DHT22;10780;50.942;4.028;2023-04-15T01:33:07;10.90;99.90
21244;DHT22;10780;50.942;4.028;2023-04-15T01:35:33;10.90;99.90
21244;DHT22;10780;50.942;4.028;2023-04-15T01:38:06;11.10;99.90
21244;DHT22;10780;50.942;4.028;2023-04-15T01:40:33;10.80;99.90
21244;DHT22;10780;50.942;4.028;2023-04-15T01:43:00;10.60;99.90
21244;DHT22;10780;50.942;4.028;2023-04-15T01:45:26;10.40;99.90
21244;DHT22;10780;50.942;4.028;2023-04-15T01:47:52;10.50;99.90
21244;DHT22;10780;50.942;4.028;2023-04-15T01:50:18;10.70;99.90
21244;DHT22;10780;50.942;4.028;2023-04-15T01:52:45;10.70;99.90
21244;DHT22;10780;50.942;4.028;2023-04-15T01:55:11;10.80;99.90
21244;DHT22;10780;50.942;4.028;2023-04-15T01:57:37;10.80;99.90
21244;DHT22;10780;50.942;4.028;2023-04-15T02:00:04;11.00;99.90
21244;DHT22;10780;50.942;4.028;2023-04-15T02:02:29;11.10;99.90
21244;DHT22;10780;50.942;4.028;2023-04-15T02:04:55;11.10;99.90
21244;DHT22;10780;50.942;4.028;2023-04-15T02:07:21;11.30;99.90
21244;DHT22;10780;50.942;4.028;2023-04-15T02:09:46;11.10;99.90
21244;DHT22;10780;50.942;4.028;2023-04-15T02:12:12;10.80;99.90
21244;DHT22;10780;50.942;4.028;2023-04-15T02:14:38;10.70;99.90
21244;DHT22;10780;50.942;4.028;2023-04-15T02:17:04;10.60;99.90
21244;DHT22;10780;50.942;4.028;2023-04-15T02:19:33;10.70;99.90
21244;DHT22;10780;50.942;4.028;2023-04-15T02:21:59;10.80;99.90
21244;DHT22;10780;50.942;4.028;2023-04-15T02:24:26;10.70;99.90
21244;DHT22;10780;50.942;4.028;2023-04-15T02:26:52;10.70;99.90
21244;DHT22;10780;50.942;4.028;2023-04-15T02:29:17;10.70;99.90
21244;DHT22;10780;50.942;4.028;2023-04-15T02:31:43;10.80;99.90
21244;DHT22;10780;50.942;4.028;2023-04-15T02:34:09;10.90;99.90
21244;DHT22;10780;50.942;4.028;2023-04-15T02:36:35;10.80;99.90
21244;DHT22;10780;50.942;4.028;2023-04-15T02:39:01;10.80;99.90
21244;DHT22;10780;50.942;4.028;2023-04-15T02:41:28;10.90;99.90
21244;DHT22;10780;50.942;4.028;2023-04-15T02:43:54;11.00;99.90
21244;DHT22;10780;50.942;4.028;2023-04-15T02:46:21;10.90;99.90
21244;DHT22;10780;50.942;4.028;2023-04-15T02:48:50;10.70;99.90
21244;DHT22;10780;50.942;4.028;2023-04-15T02:51:19;10.70;99.90
21244;DHT22;10780;50.942;4.028;2023-04-15T02:53:46;10.70;99.90
21244;DHT22;10780;50.942;4.028;2023-04-15T02:56:13;10.80;99.90
21244;DHT22;10780;50.942;4.028;2023-04-15T02:58:40;10.80;99.90
21244;DHT22;10780;50.942;4.028;2023-04-15T03:01:06;10.90;99.90
21244;DHT22;10780;50.942;4.028;2023-04-15T03:03:33;10.80;99.90
21244;DHT22;10780;50.942;4.028;2023-04-15T03:05:59;10.80;99.90
21244;DHT22;10780;50.942;4.028;2023-04-15T03:08:25;10.70;99.90
21244;DHT22;10780;50.942;4.028;2023-04-15T03:10:51;10.60;99.90
21244;DHT22;10780;50.942;4.028;2023-04-15T03:13:17;10.70;99.90
21244;DHT22;10780;50.942;4.028;2023-04-15T03:15:44;10.60;99.90
21244;DHT22;10780;50.942;4.028;2023-04-15T03:18:10;10.30;99.90
21244;DHT22;10780;50.942;4.028;2023-04-15T03:20:36;10.20;99.90
21244;DHT22;10780;50.942;4.028;2023-04-15T03:23:01;10.00;99.90
21244;DHT22;10780;50.942;4.028;2023-04-15T03:25:27;9.90;99.90
21244;DHT22;10780;50.942;4.028;2023-04-15T03:27:52;9.70;99.90
21244;DHT22;10780;50.942;4.028;2023-04-15T03:30:18;9.70;99.90
21244;DHT22;10780;50.942;4.028;2023-04-15T03:32:44;9.70;99.90
21244;DHT22;10780;50.942;4.028;2023-04-15T03:35:09;9.80;99.90
21244;DHT22;10780;50.942;4.028;2023-04-15T03:37:35;9.90;99.90
21244;DHT22;10780;50.942;4.028;2023-04-15T03:40:01;9.90;99.90
21244;DHT22;10780;50.942;4.028;2023-04-15T03:42:26;9.90;99.90
21244;DHT22;10780;50.942;4.028;2023-04-15T03:44:52;10.00;99.90
21244;DHT22;10780;50.942;4.028;2023-04-15T03:47:18;10.10;99.90
21244;DHT22;10780;50.942;4.028;2023-04-15T03:49:43;10.00;99.90
21244;DHT22;10780;50.942;4.028;2023-04-15T03:52:09;10.00;99.90
21244;DHT22;10780;50.942;4.028;2023-04-15T03:54:34;9.90;99.90
21244;DHT22;10780;50.942;4.028;2023-04-15T03:57:00;9.80;99.90
21244;DHT22;10780;50.942;4.028;2023-04-15T03:59:26;9.80;99.90
21244;DHT22;10780;50.942;4.028;2023-04-15T04:01:51;9.70;99.90
21244;DHT22;10780;50.942;4.028;2023-04-15T04:04:17;9.50;99.90
21244;DHT22;10780;50.942;4.028;2023-04-15T04:06:43;9.40;99.90
21244;DHT22;10780;50.942;4.028;2023-04-15T04:09:08;9.50;99.90
21244;DHT22;10780;50.942;4.028;2023-04-15T04:11:34;9.40;99.90
21244;DHT22;10780;50.942;4.028;2023-04-15T04:14:00;9.40;99.90
21244;DHT22;10780;50.942;4.028;2023-04-15T04:16:25;9.40;99.90
21244;DHT22;10780;50.942;4.028;2023-04-15T04:18:51;9.50;99.90
21244;DHT22;10780;50.942;4.028;2023-04-15T04:21:16;9.60;99.90
21244;DHT22;10780;50.942;4.028;2023-04-15T04:23:42;9.70;99.90
21244;DHT22;10780;50.942;4.028;2023-04-15T04:26:08;9.60;99.90
21244;DHT22;10780;50.942;4.028;2023-04-15T04:28:33;9.60;99.90
21244;DHT22;10780;50.942;4.028;2023-04-15T04:31:00;9.50;99.90
21244;DHT22;10780;50.942;4.028;2023-04-15T04:33:26;9.60;99.90
21244;DHT22;10780;50.942;4.028;2023-04-15T04:35:52;9.60;99.90
21244;DHT22;10780;50.942;4.028;2023-04-15T04:38:17;9.80;99.90
21244;DHT22;10780;50.942;4.028;2023-04-15T04:40:43;9.80;99.90
21244;DHT22;10780;50.942;4.028;2023-04-15T04:43:08;9.80;99.90
21244;DHT22;10780;50.942;4.028;2023-04-15T04:45:34;9.80;99.90
21244;DHT22;10780;50.942;4.028;2023-04-15T04:48:00;9.60;99.90
21244;DHT22;10780;50.942;4.028;2023-04-15T04:50:26;9.50;99.90
21244;DHT22;10780;50.942;4.028;2023-04-15T04:52:51;9.40;99.90
21244;DHT22;10780;50.942;4.028;2023-04-15T04:55:17;9.30;99.90
21244;DHT22;10780;50.942;4.028;2023-04-15T04:57:43;9.30;99.90
21244;DHT22;10780;50.942;4.028;2023-04-15T05:00:09;9.40;99.90
21244;DHT22;10780;50.942;4.028;2023-04-15T05:02:35;9.40;99.90
21244;DHT22;10780;50.942;4.028;2023-04-15T05:05:01;9.40;99.90
21244;DHT22;10780;50.942;4.028;2023-04-15T05:07:26;9.30;99.90
21244;DHT22;10780;50.942;4.028;2023-04-15T05:09:52;9.40;99.90
21244;DHT22;10780;50.942;4.028;2023-04-15T05:12:18;9.40;99.90
21244;DHT22;10780;50.942;4.028;2023-04-15T05:14:43;9.40;99.90
21244;DHT22;10780;50.942;4.028;2023-04-15T05:17:11;9.40;99.90
21244;DHT22;10780;50.942;4.028;2023-04-15T05:19:36;9.60;99.90
21244;DHT22;10780;50.942;4.028;2023-04-15T05:22:02;9.60;99.90
21244;DHT22;10780;50.942;4.028;2023-04-15T05:24:28;9.70;99.90
21244;DHT22;10780;50.942;4.028;2023-04-15T05:26:53;10.00;99.90
21244;DHT22;10780;50.942;4.028;2023-04-15T05:29:19;10.10;99.90
21244;DHT22;10780;50.942;4.028;2023-04-15T05:31:45;10.00;99.90
21244;DHT22;10780;50.942;4.028;2023-04-15T05:34:10;9.90;99.90
21244;DHT22;10780;50.942;4.028;2023-04-15T05:36:36;9.90;99.90
21244;DHT22;10780;50.942;4.028;2023-04-15T05:39:02;10.00;99.90
21244;DHT22;10780;50.942;4.028;2023-04-15T05:41:28;10.10;99.90
21244;DHT22;10780;50.942;4.028;2023-04-15T05:43:54;10.20;99.90
21244;DHT22;10780;50.942;4.028;2023-04-15T05:46:20;10.00;99.90
21244;DHT22;10780;50.942;4.028;2023-04-15T05:48:45;10.00;99.90
21244;DHT22;10780;50.942;4.028;2023-04-15T05:51:11;9.90;99.90
21244;DHT22;10780;50.942;4.028;2023-04-15T05:53:37;10.00;99.90
21244;DHT22;10780;50.942;4.028;2023-04-15T05:56:02;10.10;99.90
21244;DHT22;10780;50.942;4.028;2023-04-15T05:58:28;10.00;99.90
21244;DHT22;10780;50.942;4.028;2023-04-15T06:00:54;9.90;99.90
21244;DHT22;10780;50.942;4.028;2023-04-15T06:03:20;9.90;99.90
21244;DHT22;10780;50.942;4.028;2023-04-15T06:05:47;9.90;99.90
21244;DHT22;10780;50.942;4.028;2023-04-15T06:08:12;10.10;99.90
21244;DHT22;10780;50.942;4.028;2023-04-15T06:10:38;10.20;99.90
21244;DHT22;10780;50.942;4.028;2023-04-15T06:13:04;10.30;99.90
21244;DHT22;10780;50.942;4.028;2023-04-15T06:15:30;10.40;99.90
21244;DHT22;10780;50.942;4.028;2023-04-15T06:17:56;10.40;99.90
21244;DHT22;10780;50.942;4.028;2023-04-15T06:20:21;10.40;99.90
21244;DHT22;10780;50.942;4.028;2023-04-15T06:22:48;10.50;99.90
21244;DHT22;10780;50.942;4.028;2023-04-15T06:25:14;10.70;99.90
21244;DHT22;10780;50.942;4.028;2023-04-15T06:27:39;10.90;99.90
21244;DHT22;10780;50.942;4.028;2023-04-15T06:30:06;11.00;99.90
21244;DHT22;10780;50.942;4.028;2023-04-15T06:32:32;11.10;99.90
21244;DHT22;10780;50.942;4.028;2023-04-15T06:34:58;10.90;99.90
21244;DHT22;10780;50.942;4.028;2023-04-15T06:37:23;10.90;99.90
21244;DHT22;10780;50.942;4.028;2023-04-15T06:39:49;10.90;99.90
21244;DHT22;10780;50.942;4.028;2023-04-15T06:42:14;11.00;99.90
21244;DHT22;10780;50.942;4.028;2023-04-15T06:44:41;10.90;99.90
21244;DHT22;10780;50.942;4.028;2023-04-15T06:47:06;10.70;99.90
21244;DHT22;10780;50.942;4.028;2023-04-15T06:49:33;10.50;99.90
21244;DHT22;10780;50.942;4.028;2023-04-15T06:51:59;10.60;99.90
21244;DHT22;10780;50.942;4.028;2023-04-15T06:54:25;10.80;99.90
21244;DHT22;10780;50.942;4.028;2023-04-15T06:56:51;11.00;99.90
21244;DHT22;10780;50.942;4.028;2023-04-15T06:59:17;11.10;99.90
21244;DHT22;10780;50.942;4.028;2023-04-15T07:01:43;11.50;99.90
21244;DHT22;10780;50.942;4.028;2023-04-15T07:04:09;12.00;99.90
21244;DHT22;10780;50.942;4.028;2023-04-15T07:06:35;12.30;99.90
21244;DHT22;10780;50.942;4.028;2023-04-15T07:09:01;12.30;99.90
21244;DHT22;10780;50.942;4.028;2023-04-15T07:11:27;12.50;99.90
21244;DHT22;10780;50.942;4.028;2023-04-15T07:13:53;12.80;99.90
21244;DHT22;10780;50.942;4.028;2023-04-15T07:16:19;12.60;99.90
21244;DHT22;10780;50.942;4.028;2023-04-15T07:18:44;12.40;99.90
21244;DHT22;10780;50.942;4.028;2023-04-15T07:21:10;12.50;99.90
21244;DHT22;10780;50.942;4.028;2023-04-15T07:23:36;12.40;99.90
21244;DHT22;10780;50.942;4.028;2023-04-15T07:26:02;12.30;99.90
21244;DHT22;10780;50.942;4.028;2023-04-15T07:28:28;12.10;99.90
21244;DHT22;10780;50.942;4.028;2023-04-15T07:30:54;11.60;99.90
21244;DHT22;10780;50.942;4.028;2023-04-15T07:33:21;11.60;99.90
21244;DHT22;10780;50.942;4.028;2023-04-15T07:35:47;11.60;99.90
21244;DHT22;10780;50.942;4.028;2023-04-15T07:38:13;11.40;99.90
21244;DHT22;10780;50.942;4.028;2023-04-15T07:40:39;11.60;99.90
21244;DHT22;10780;50.942;4.028;2023-04-15T07:43:05;11.50;99.90
21244;DHT22;10780;50.942;4.028;2023-04-15T07:45:31;11.70;99.90
21244;DHT22;10780;50.942;4.028;2023-04-15T07:47:56;11.40;99.90
21244;DHT22;10780;50.942;4.028;2023-04-15T07:50:23;11.40;99.90
21244;DHT22;10780;50.942;4.028;2023-04-15T07:52:51;11.10;99.90
21244;DHT22;10780;50.942;4.028;2023-04-15T07:55:18;11.10;99.90
21244;DHT22;10780;50.942;4.028;2023-04-15T07:57:46;11.30;99.90
21244;DHT22;10780;50.942;4.028;2023-04-15T08:00:12;11.40;99.90
21244;DHT22;10780;50.942;4.028;2023-04-15T08:02:39;11.60;99.90
21244;DHT22;10780;50.942;4.028;2023-04-15T08:05:05;11.60;99.90
21244;DHT22;10780;50.942;4.028;2023-04-15T08:07:31;11.70;99.90
21244;DHT22;10780;50.942;4.028;2023-04-15T08:09:57;11.80;99.90
21244;DHT22;10780;50.942;4.028;2023-04-15T08:12:23;11.70;99.90
21244;DHT22;10780;50.942;4.028;2023-04-15T08:14:50;11.60;99.90
21244;DHT22;10780;50.942;4.028;2023-04-15T08:17:15;11.60;99.90
21244;DHT22;10780;50.942;4.028;2023-04-15T08:19:41;11.70;99.90
21244;DHT22;10780;50.942;4.028;2023-04-15T08:22:07;11.70;99.90
21244;DHT22;10780;50.942;4.028;2023-04-15T08:24:33;11.70;99.90
21244;DHT22;10780;50.942;4.028;2023-04-15T08:26:59;11.70;99.90
21244;DHT22;10780;50.942;4.028;2023-04-15T08:29:24;11.90;99.90
21244;DHT22;10780;50.942;4.028;2023-04-15T08:31:50;12.10;99.90
21244;DHT22;10780;50.942;4.028;2023-04-15T08:34:16;12.30;99.90
21244;DHT22;10780;50.942;4.028;2023-04-15T08:36:42;12.40;99.90
21244;DHT22;10780;50.942;4.028;2023-04-15T08:39:08;12.50;99.90
21244;DHT22;10780;50.942;4.028;2023-04-15T08:41:40;12.50;99.90
21244;DHT22;10780;50.942;4.028;2023-04-15T08:44:10;12.30;99.90
21244;DHT22;10780;50.942;4.028;2023-04-15T08:46:35;12.40;99.90
21244;DHT22;10780;50.942;4.028;2023-04-15T08:49:03;12.60;99.90
21244;DHT22;10780;50.942;4.028;2023-04-15T08:51:29;12.80;99.90
21244;DHT22;10780;50.942;4.028;2023-04-15T08:53:55;13.10;99.90
21244;DHT22;10780;50.942;4.028;2023-04-15T08:56:24;13.30;99.90
21244;DHT22;10780;50.942;4.028;2023-04-15T08:58:53;13.40;99.90
21244;DHT22;10780;50.942;4.028;2023-04-15T09:01:19;13.40;99.90
21244;DHT22;10780;50.942;4.028;2023-04-15T09:03:48;13.40;99.90
21244;DHT22;10780;50.942;4.028;2023-04-15T09:06:16;13.20;99.90
21244;DHT22;10780;50.942;4.028;2023-04-15T09:08:41;13.30;99.90
21244;DHT22;10780;50.942;4.028;2023-04-15T09:11:07;13.40;99.90
21244;DHT22;10780;50.942;4.028;2023-04-15T09:13:33;13.70;99.90
21244;DHT22;10780;50.942;4.028;2023-04-15T09:16:01;13.90;99.90
21244;DHT22;10780;50.942;4.028;2023-04-15T09:18:38;14.20;99.90
21244;DHT22;10780;50.942;4.028;2023-04-15T09:23:31;14.40;99.90
21244;DHT22;10780;50.942;4.028;2023-04-15T09:25:57;14.30;99.90
21244;DHT22;10780;50.942;4.028;2023-04-15T09:28:24;14.40;99.90
21244;DHT22;10780;50.942;4.028;2023-04-15T09:30:54;14.50;99.90
21244;DHT22;10780;50.942;4.028;2023-04-15T09:33:21;14.70;99.90
21244;DHT22;10780;50.942;4.028;2023-04-15T09:36:01;14.60;99.90
21244;DHT22;10780;50.942;4.028;2023-04-15T09:38:27;14.40;99.90
21244;DHT22;10780;50.942;4.028;2023-04-15T09:40:53;14.20;99.90
21244;DHT22;10780;50.942;4.028;2023-04-15T09:43:19;14.30;99.90
21244;DHT22;10780;50.942;4.028;2023-04-15T09:45:49;14.30;99.90
21244;DHT22;10780;50.942;4.028;2023-04-15T09:48:23;14.20;99.90
21244;DHT22;10780;50.942;4.028;2023-04-15T09:50:53;14.50;99.90
21244;DHT22;10780;50.942;4.028;2023-04-15T09:53:23;14.60;99.90
21244;DHT22;10780;50.942;4.028;2023-04-15T09:55:56;14.90;99.90
21244;DHT22;10780;50.942;4.028;2023-04-15T09:58:23;15.10;99.90
21244;DHT22;10780;50.942;4.028;2023-04-15T10:00:51;14.80;99.90
21244;DHT22;10780;50.942;4.028;2023-04-15T10:03:19;14.90;99.90
21244;DHT22;10780;50.942;4.028;2023-04-15T10:05:47;15.10;99.90
21244;DHT22;10780;50.942;4.028;2023-04-15T10:08:16;15.30;99.90
21244;DHT22;10780;50.942;4.028;2023-04-15T10:10:44;15.30;99.90
21244;DHT22;10780;50.942;4.028;2023-04-15T10:13:12;15.20;99.90
21244;DHT22;10780;50.942;4.028;2023-04-15T10:15:37;15.40;99.90
21244;DHT22;10780;50.942;4.028;2023-04-15T10:18:04;15.60;99.90
21244;DHT22;10780;50.942;4.028;2023-04-15T10:20:32;15.60;99.90
21244;DHT22;10780;50.942;4.028;2023-04-15T10:22:58;15.70;99.90
21244;DHT22;10780;50.942;4.028;2023-04-15T10:25:25;15.70;99.90
21244;DHT22;10780;50.942;4.028;2023-04-15T10:27:51;15.70;99.90
21244;DHT22;10780;50.942;4.028;2023-04-15T10:30:17;15.70;99.90
21244;DHT22;10780;50.942;4.028;2023-04-15T10:32:44;15.60;99.90
21244;DHT22;10780;50.942;4.028;2023-04-15T10:35:10;15.50;99.90
21244;DHT22;10780;50.942;4.028;2023-04-15T10:37:37;15.40;99.90
21244;DHT22;10780;50.942;4.028;2023-04-15T10:42:55;15.60;99.90
21244;DHT22;10780;50.942;4.028;2023-04-15T10:45:21;15.70;99.90
21244;DHT22;10780;50.942;4.028;2023-04-15T10:47:52;15.70;99.90
21244;DHT22;10780;50.942;4.028;2023-04-15T10:50:19;15.80;99.90
21244;DHT22;10780;50.942;4.028;2023-04-15T10:52:44;15.80;99.90
21244;DHT22;10780;50.942;4.028;2023-04-15T10:55:13;15.70;99.90
21244;DHT22;10780;50.942;4.028;2023-04-15T10:57:43;15.70;99.90
21244;DHT22;10780;50.942;4.028;2023-04-15T11:00:15;15.80;99.90
21244;DHT22;10780;50.942;4.028;2023-04-15T11:02:51;15.80;99.90
21244;DHT22;10780;50.942;4.028;2023-04-15T11:05:17;15.80;99.90
21244;DHT22;10780;50.942;4.028;2023-04-15T11:12:43;15.80;99.90
21244;DHT22;10780;50.942;4.028;2023-04-15T11:15:37;15.80;99.90
21244;DHT22;10780;50.942;4.028;2023-04-15T11:18:25;15.60;99.90
21244;DHT22;10780;50.942;4.028;2023-04-15T11:21:01;15.50;99.90
21244;DHT22;10780;50.942;4.028;2023-04-15T11:23:37;15.50;99.90
21244;DHT22;10780;50.942;4.028;2023-04-15T11:26:05;15.50;99.90
21244;DHT22;10780;50.942;4.028;2023-04-15T11:28:34;15.40;99.90
21244;DHT22;10780;50.942;4.028;2023-04-15T11:31:12;15.20;99.90
21244;DHT22;10780;50.942;4.028;2023-04-15T11:36:19;15.40;99.90
21244;DHT22;10780;50.942;4.028;2023-04-15T11:38:46;15.40;99.90
21244;DHT22;10780;50.942;4.028;2023-04-15T11:41:12;15.50;99.90
21244;DHT22;10780;50.942;4.028;2023-04-15T11:43:37;15.50;99.90
21244;DHT22;10780;50.942;4.028;2023-04-15T11:46:03;15.40;99.90
21244;DHT22;10780;50.942;4.028;2023-04-15T11:48:34;15.50;99.90
21244;DHT22;10780;50.942;4.028;2023-04-15T11:51:04;15.60;99.90
21244;DHT22;10780;50.942;4.028;2023-04-15T11:56:07;15.70;99.90
21244;DHT22;10780;50.942;4.028;2023-04-15T11:58:35;15.80;99.90
21244;DHT22;10780;50.942;4.028;2023-04-15T12:01:04;15.80;99.90
21244;DHT22;10780;50.942;4.028;2023-04-15T12:03:39;15.80;99.90
21244;DHT22;10780;50.942;4.028;2023-04-15T12:06:19;15.80;99.90
21244;DHT22;10780;50.942;4.028;2023-04-15T12:08:56;15.70;99.90
21244;DHT22;10780;50.942;4.028;2023-04-15T12:14:01;15.70;99.90
21244;DHT22;10780;50.942;4.028;2023-04-15T12:16:28;15.70;99.90
21244;DHT22;10780;50.942;4.028;2023-04-15T12:18:59;15.80;99.90
21244;DHT22;10780;50.942;4.028;2023-04-15T12:21:31;15.70;99.90
21244;DHT22;10780;50.942;4.028;2023-04-15T12:24:01;15.60;99.90
21244;DHT22;10780;50.942;4.028;2023-04-15T12:26:50;15.60;99.90
21244;DHT22;10780;50.942;4.028;2023-04-15T12:29:16;15.70;99.90
21244;DHT22;10780;50.942;4.028;2023-04-15T12:31:50;15.80;99.90
21244;DHT22;10780;50.942;4.028;2023-04-15T12:34:17;15.80;99.90
21244;DHT22;10780;50.942;4.028;2023-04-15T12:36:43;15.60;99.90
21244;DHT22;10780;50.942;4.028;2023-04-15T12:39:10;15.50;99.90
21244;DHT22;10780;50.942;4.028;2023-04-15T12:41:35;15.70;99.90
21244;DHT22;10780;50.942;4.028;2023-04-15T12:44:01;15.80;99.90
21244;DHT22;10780;50.942;4.028;2023-04-15T12:46:26;15.70;99.90
21244;DHT22;10780;50.942;4.028;2023-04-15T12:48:52;15.60;99.90
21244;DHT22;10780;50.942;4.028;2023-04-15T12:51:19;15.60;99.90
21244;DHT22;10780;50.942;4.028;2023-04-15T12:53:47;15.70;99.90
21244;DHT22;10780;50.942;4.028;2023-04-15T12:56:14;15.70;99.90
21244;DHT22;10780;50.942;4.028;2023-04-15T12:58:41;15.70;99.90
21244;DHT22;10780;50.942;4.028;2023-04-15T13:01:07;15.70;99.90
21244;DHT22;10780;50.942;4.028;2023-04-15T13:03:33;15.70;99.90
21244;DHT22;10780;50.942;4.028;2023-04-15T13:05:58;15.60;99.90
21244;DHT22;10780;50.942;4.028;2023-04-15T13:08:26;15.60;99.90
21244;DHT22;10780;50.942;4.028;2023-04-15T13:10:52;15.60;99.90
21244;DHT22;10780;50.942;4.028;2023-04-15T13:13:17;15.40;99.90
21244;DHT22;10780;50.942;4.028;2023-04-15T13:15:43;15.40;99.90
21244;DHT22;10780;50.942;4.028;2023-04-15T13:18:10;15.50;99.90
21244;DHT22;10780;50.942;4.028;2023-04-15T13:20:35;15.60;99.90
21244;DHT22;10780;50.942;4.028;2023-04-15T13:23:01;15.60;99.90
21244;DHT22;10780;50.942;4.028;2023-04-15T13:25:27;15.50;99.90
21244;DHT22;10780;50.942;4.028;2023-04-15T13:27:53;15.60;99.90
21244;DHT22;10780;50.942;4.028;2023-04-15T13:30:19;15.70;99.90
21244;DHT22;10780;50.942;4.028;2023-04-15T13:32:44;15.70;99.90
21244;DHT22;10780;50.942;4.028;2023-04-15T13:35:10;15.60;99.90
21244;DHT22;10780;50.942;4.028;2023-04-15T13:37:36;15.60;99.90
21244;DHT22;10780;50.942;4.028;2023-04-15T13:40:01;15.60;99.90
21244;DHT22;10780;50.942;4.028;2023-04-15T13:42:27;15.60;99.90
21244;DHT22;10780;50.942;4.028;2023-04-15T13:44:53;15.60;99.90
21244;DHT22;10780;50.942;4.028;2023-04-15T13:47:19;15.70;99.90
21244;DHT22;10780;50.942;4.028;2023-04-15T13:49:45;15.60;99.90
21244;DHT22;10780;50.942;4.028;2023-04-15T13:52:11;15.70;99.90
21244;DHT22;10780;50.942;4.028;2023-04-15T13:54:36;15.70;99.90
21244;DHT22;10780;50.942;4.028;2023-04-15T13:57:02;15.40;99.90
21244;DHT22;10780;50.942;4.028;2023-04-15T13:59:28;15.30;99.90
21244;DHT22;10780;50.942;4.028;2023-04-15T14:01:53;15.40;99.90
21244;DHT22;10780;50.942;4.028;2023-04-15T14:04:19;15.50;99.90
21244;DHT22;10780;50.942;4.028;2023-04-15T14:06:45;15.50;99.90
21244;DHT22;10780;50.942;4.028;2023-04-15T14:09:10;15.60;99.90
21244;DHT22;10780;50.942;4.028;2023-04-15T14:11:39;15.70;99.90
21244;DHT22;10780;50.942;4.028;2023-04-15T14:14:05;15.70;99.90
21244;DHT22;10780;50.942;4.028;2023-04-15T14:16:33;15.70;99.90
21244;DHT22;10780;50.942;4.028;2023-04-15T14:19:00;15.60;99.90
21244;DHT22;10780;50.942;4.028;2023-04-15T14:21:26;15.70;99.90
21244;DHT22;10780;50.942;4.028;2023-04-15T14:23:52;15.60;99.90
21244;DHT22;10780;50.942;4.028;2023-04-15T14:26:18;15.40;99.90
21244;DHT22;10780;50.942;4.028;2023-04-15T14:28:44;15.60;99.90
21244;DHT22;10780;50.942;4.028;2023-04-15T14:31:10;15.70;99.90
21244;DHT22;10780;50.942;4.028;2023-04-15T14:33:35;16.00;99.90
21244;DHT22;10780;50.942;4.028;2023-04-15T14:36:01;16.40;99.90
21244;DHT22;10780;50.942;4.028;2023-04-15T14:38:27;16.50;99.90
21244;DHT22;10780;50.942;4.028;2023-04-15T14:40:53;16.30;99.90
21244;DHT22;10780;50.942;4.028;2023-04-15T14:43:19;16.60;99.90
21244;DHT22;10780;50.942;4.028;2023-04-15T14:45:44;17.00;99.90
21244;DHT22;10780;50.942;4.028;2023-04-15T14:48:10;17.30;99.90
21244;DHT22;10780;50.942;4.028;2023-04-15T14:50:37;17.30;99.90
21244;DHT22;10780;50.942;4.028;2023-04-15T14:53:02;17.00;99.90
21244;DHT22;10780;50.942;4.028;2023-04-15T14:55:28;16.90;99.90
21244;DHT22;10780;50.942;4.028;2023-04-15T14:57:54;17.30;99.90
21244;DHT22;10780;50.942;4.028;2023-04-15T15:00:20;17.60;99.90
21244;DHT22;10780;50.942;4.028;2023-04-15T15:02:45;17.80;99.90
21244;DHT22;10780;50.942;4.028;2023-04-15T15:05:11;17.80;99.90
21244;DHT22;10780;50.942;4.028;2023-04-15T15:07:38;17.60;99.90
21244;DHT22;10780;50.942;4.028;2023-04-15T15:10:05;17.30;99.90
21244;DHT22;10780;50.942;4.028;2023-04-15T15:12:32;17.10;99.90
21244;DHT22;10780;50.942;4.028;2023-04-15T15:14:57;16.90;99.90
21244;DHT22;10780;50.942;4.028;2023-04-15T15:17:23;16.50;99.90
21244;DHT22;10780;50.942;4.028;2023-04-15T15:19:49;16.10;99.90
21244;DHT22;10780;50.942;4.028;2023-04-15T15:22:15;16.60;99.90
21244;DHT22;10780;50.942;4.028;2023-04-15T15:24:41;17.30;99.90
21244;DHT22;10780;50.942;4.028;2023-04-15T15:27:06;17.50;99.90
21244;DHT22;10780;50.942;4.028;2023-04-15T15:29:32;17.50;99.90
21244;DHT22;10780;50.942;4.028;2023-04-15T15:31:58;17.20;99.90
21244;DHT22;10780;50.942;4.028;2023-04-15T15:34:23;16.70;99.90
21244;DHT22;10780;50.942;4.028;2023-04-15T15:36:49;16.90;99.90
21244;DHT22;10780;50.942;4.028;2023-04-15T15:39:15;17.10;99.90
21244;DHT22;10780;50.942;4.028;2023-04-15T15:41:40;16.90;99.90
21244;DHT22;10780;50.942;4.028;2023-04-15T15:44:06;16.50;99.90
21244;DHT22;10780;50.942;4.028;2023-04-15T15:46:32;16.70;99.90